createdAt,value
2023-03-10T07:49:47.428Z,96411.00
2023-03-10T07:52:17.006Z,96413.00
2023-03-10T07:54:44.696Z,96419.00
2023-03-10T07:57:14.722Z,96421.00
2023-03-10T08:01:57.107Z,96433.00
2023-03-10T08:04:24.572Z,96433.00
2023-03-10T08:06:51.991Z,96436.00
2023-03-10T08:09:19.347Z,96443.00
2023-03-10T08:27:07.929Z,96434.00
2023-03-10T08:29:36.535Z,96423.00
2023-03-10T08:32:04.037Z,96420.00
2023-03-10T08:34:36.777Z,96424.00
2023-03-10T08:37:05.055Z,96440.00
2023-03-10T08:39:32.473Z,96445.00
2023-03-10T08:41:59.821Z,96440.00
2023-03-10T08:44:27.239Z,96438.00
2023-03-10T08:46:55.182Z,96450.00
2023-03-10T08:49:23.297Z,96448.00
2023-03-10T08:51:50.742Z,96454.00
2023-03-10T08:54:22.634Z,96456.00
2023-03-10T08:56:50.599Z,96446.00
2023-03-10T08:59:18.360Z,96441.00
2023-03-10T09:01:46.259Z,96438.00
2023-03-10T09:04:13.918Z,96435.00
2023-03-10T09:06:41.469Z,96456.00
2023-03-10T09:09:10.660Z,96440.00
2023-03-10T09:11:40.890Z,96446.00
2023-03-10T09:14:11.589Z,96449.00
2023-03-10T09:16:40.436Z,96453.00
2023-03-10T09:19:08.143Z,96451.00
2023-03-10T09:21:35.724Z,96459.00
2023-03-10T09:24:04.627Z,96454.00
2023-03-10T09:26:32.328Z,96465.00
2023-03-10T09:28:59.655Z,96453.00
2023-03-10T09:31:35.321Z,96455.00
2023-03-10T09:34:04.467Z,96451.00
2023-03-10T09:36:32.915Z,96474.00
2023-03-10T09:39:01.328Z,96484.00
2023-03-10T09:42:14.965Z,96496.00
2023-03-10T09:45:00.499Z,96494.00
2023-03-10T09:47:48.168Z,96483.00
2023-03-10T09:50:49.737Z,96491.00
2023-03-10T09:54:04.103Z,96487.00
2023-03-10T09:56:35.970Z,96485.00
2023-03-10T09:59:33.821Z,96475.00
2023-03-10T10:02:15.839Z,96502.00
2023-03-10T10:04:43.907Z,96493.00
2023-03-10T10:07:25.004Z,96485.00
2023-03-10T10:10:20.287Z,96501.00
2023-03-10T10:12:52.585Z,96502.00
2023-03-10T10:15:26.798Z,96479.00
2023-03-10T10:18:31.164Z,96497.00
2023-03-10T10:21:13.985Z,96492.00
2023-03-10T10:23:54.236Z,96488.00
2023-03-10T10:26:26.620Z,96489.00
2023-03-10T10:29:07.006Z,96494.00
2023-03-10T10:31:36.111Z,96502.00
2023-03-10T10:34:21.488Z,96493.00
2023-03-10T10:36:55.419Z,96492.00
2023-03-10T10:39:40.680Z,96507.00
2023-03-10T10:42:32.746Z,96501.00
2023-03-10T10:45:35.683Z,96514.00
2023-03-10T10:48:03.960Z,96504.00
2023-03-10T10:50:37.595Z,96510.00
2023-03-10T10:53:21.781Z,96522.00
2023-03-10T10:56:18.966Z,96510.00
2023-03-10T10:59:16.098Z,96522.00
2023-03-10T11:01:56.549Z,96530.00
2023-03-10T11:04:48.785Z,96522.00
2023-03-10T11:07:27.398Z,96523.00
2023-03-10T11:09:58.229Z,96533.00
2023-03-10T11:13:15.778Z,96549.00
2023-03-10T11:16:22.149Z,96560.00
2023-03-10T11:19:20.978Z,96561.00
2023-03-10T11:21:58.827Z,96552.00
2023-03-10T11:25:26.411Z,96549.00
2023-03-10T11:28:36.856Z,96577.00
2023-03-10T11:31:47.496Z,96567.00
2023-03-10T11:34:30.672Z,96549.00
2023-03-10T11:37:55.614Z,96566.00
2023-03-10T11:40:50.999Z,96548.00
2023-03-10T11:43:55.593Z,96577.00
2023-03-10T11:47:18.868Z,96572.00
2023-03-10T11:50:08.999Z,96590.00
2023-03-10T11:52:37.477Z,96580.00
2023-03-10T11:55:20.924Z,96583.00
2023-03-10T11:57:55.303Z,96569.00
2023-03-10T12:00:38.253Z,96593.00
2023-03-10T12:04:02.205Z,96560.00
2023-03-10T12:07:22.407Z,96573.00
2023-03-10T12:10:01.368Z,96581.00
2023-03-10T12:12:37.905Z,96616.00
2023-03-10T12:15:37.128Z,96571.00
2023-03-10T12:18:07.890Z,96607.00
2023-03-10T12:20:36.524Z,96604.00
2023-03-10T12:23:09.747Z,96641.00
2023-03-10T12:25:38.148Z,96619.00
2023-03-10T12:28:17.232Z,96626.00
2023-03-10T12:31:35.210Z,96627.00
2023-03-10T12:34:32.348Z,96627.00
2023-03-10T12:37:12.066Z,96628.00
2023-03-10T12:39:44.401Z,96643.00
2023-03-10T12:42:34.566Z,96651.00
2023-03-10T12:45:29.323Z,96647.00
2023-03-10T12:48:18.306Z,96664.00
2023-03-10T12:51:05.087Z,96671.00
2023-03-10T12:54:26.069Z,96669.00
2023-03-10T12:57:37.220Z,96677.00
2023-03-10T13:00:45.417Z,96666.00
2023-03-10T13:03:41.851Z,96667.00
2023-03-10T13:06:36.929Z,96697.00
2023-03-10T13:09:33.129Z,96694.00
2023-03-10T13:12:46.076Z,96679.00
2023-03-10T13:15:32.459Z,96679.00
2023-03-10T13:18:22.390Z,96685.00
2023-03-10T13:20:50.480Z,96691.00
2023-03-10T13:23:32.453Z,96686.00
2023-03-10T13:26:07.739Z,96707.00
2023-03-10T13:28:36.516Z,96714.00
2023-03-10T13:31:33.702Z,96718.00
2023-03-10T13:34:22.051Z,96715.00
2023-03-10T13:36:49.831Z,96732.00
2023-03-10T13:39:27.421Z,96748.00
2023-03-10T13:42:01.371Z,96734.00
2023-03-10T13:44:40.837Z,96740.00
2023-03-10T13:47:21.898Z,96727.00
2023-03-10T13:50:01.393Z,96715.00
2023-03-10T13:52:31.760Z,96756.00
2023-03-10T13:55:17.122Z,96760.00
2023-03-10T13:57:48.315Z,96773.00
2023-03-10T14:00:26.278Z,96761.00
2023-03-10T14:02:54.973Z,96768.00
2023-03-10T14:05:47.508Z,96788.00
2023-03-10T14:08:32.452Z,96788.00
2023-03-10T14:11:44.662Z,96805.00
2023-03-10T14:14:25.601Z,96780.00
2023-03-10T14:17:00.714Z,96810.00
2023-03-10T14:19:42.974Z,96831.00
2023-03-10T14:22:41.548Z,96831.00
2023-03-10T14:25:22.792Z,96853.00
2023-03-10T14:28:12.784Z,96839.00
2023-03-10T14:30:44.271Z,96858.00
2023-03-10T14:33:16.620Z,96836.00
2023-03-10T14:35:48.359Z,96820.00
2023-03-10T14:38:17.161Z,96834.00
2023-03-10T14:40:54.237Z,96843.00
2023-03-10T14:43:27.503Z,96838.00
2023-03-10T14:46:01.338Z,96834.00
2023-03-10T14:48:35.687Z,96854.00
2023-03-10T14:51:03.278Z,96840.00
2023-03-10T14:53:31.885Z,96840.00
2023-03-10T14:56:02.587Z,96855.00
2023-03-10T14:58:44.330Z,96840.00
2023-03-10T15:01:11.739Z,96859.00
2023-03-10T15:03:39.087Z,96871.00
2023-03-10T15:06:07.335Z,96873.00
2023-03-10T15:08:34.757Z,96868.00
2023-03-10T15:11:02.573Z,96875.00
2023-03-10T15:13:29.930Z,96882.00
2023-03-10T15:15:57.401Z,96888.00
2023-03-10T15:18:27.092Z,96878.00
2023-03-10T15:20:59.295Z,96869.00
2023-03-10T15:23:30.905Z,96870.00
2023-03-10T15:25:59.138Z,96860.00
2023-03-10T15:28:26.668Z,96862.00
2023-03-10T15:30:54.801Z,96862.00
2023-03-10T15:33:22.211Z,96865.00
2023-03-10T15:35:50.029Z,96881.00
2023-03-10T15:38:17.463Z,96874.00
2023-03-10T15:40:44.864Z,96882.00
2023-03-10T15:43:12.882Z,96879.00
2023-03-10T15:45:49.116Z,96882.00
2023-03-10T15:48:17.153Z,96892.00
2023-03-10T15:50:48.966Z,96889.00
2023-03-10T15:53:16.350Z,96923.00
2023-03-10T15:55:43.965Z,96926.00
2023-03-10T15:58:12.514Z,96965.00
2023-03-10T16:00:42.286Z,96962.00
2023-03-10T16:03:11.230Z,96954.00
2023-03-10T16:05:39.263Z,96930.00
2023-03-10T16:08:06.838Z,96959.00
2023-03-10T16:10:39.939Z,96939.00
2023-03-10T16:13:07.820Z,96932.00
2023-03-10T16:15:39.388Z,96928.00
2023-03-10T16:18:06.651Z,96979.00
2023-03-10T16:20:34.076Z,96904.00
2023-03-10T16:23:02.052Z,96941.00
2023-03-10T16:25:29.433Z,96970.00
2023-03-10T16:27:56.745Z,96946.00
2023-03-10T16:30:24.300Z,96956.00
2023-03-10T16:32:51.848Z,96963.00
2023-03-10T16:35:19.518Z,96961.00
2023-03-10T16:37:46.811Z,96972.00
2023-03-10T16:40:14.685Z,96946.00
2023-03-10T16:42:45.513Z,96977.00
2023-03-10T16:45:13.479Z,96986.00
2023-03-10T16:47:41.179Z,96964.00
2023-03-10T16:50:12.684Z,96991.00
2023-03-10T16:52:42.968Z,96983.00
2023-03-10T16:55:17.339Z,96978.00
2023-03-10T16:57:45.856Z,96974.00
2023-03-10T17:00:15.366Z,96988.00
2023-03-10T17:02:42.720Z,96972.00
2023-03-10T17:05:10.369Z,96985.00
2023-03-10T17:07:46.415Z,96976.00
2023-03-10T17:10:21.079Z,97003.00
2023-03-10T17:12:48.469Z,96989.00
2023-03-10T17:15:16.031Z,96990.00
2023-03-10T17:17:43.485Z,96998.00
2023-03-10T17:20:12.499Z,96998.00
2023-03-10T17:22:40.205Z,97008.00
2023-03-10T17:25:08.611Z,97025.00
2023-03-10T17:27:35.941Z,97014.00
2023-03-10T17:30:03.546Z,97025.00
2023-03-10T17:32:31.000Z,97041.00
2023-03-10T17:34:58.410Z,97054.00
2023-03-10T17:37:25.784Z,97069.00
2023-03-10T17:39:54.533Z,97073.00
2023-03-10T17:42:22.642Z,97063.00
2023-03-10T17:44:50.044Z,97066.00
2023-03-10T17:47:17.411Z,97073.00
2023-03-10T17:49:45.511Z,97063.00
2023-03-10T17:52:12.845Z,97092.00
2023-03-10T17:54:40.643Z,97104.00
2023-03-10T17:57:08.107Z,97090.00
2023-03-10T17:59:39.065Z,97092.00
2023-03-10T18:02:06.721Z,97107.00
2023-03-10T18:04:36.497Z,97100.00
2023-03-10T18:07:03.874Z,97125.00
2023-03-10T18:09:31.211Z,97143.00
2023-03-10T18:11:58.689Z,97133.00
2023-03-10T18:14:26.643Z,97174.00
2023-03-10T18:16:53.976Z,97158.00
2023-03-10T18:19:21.548Z,97189.00
2023-03-10T18:21:51.026Z,97171.00
2023-03-10T18:24:18.399Z,97184.00
2023-03-10T18:26:45.802Z,97192.00
2023-03-10T18:29:14.374Z,97209.00
2023-03-10T18:31:41.865Z,97197.00
2023-03-10T18:34:10.231Z,97207.00
2023-03-10T18:36:37.657Z,97211.00
2023-03-10T18:39:07.254Z,97213.00
2023-03-10T18:41:35.450Z,97228.00
2023-03-10T18:44:02.993Z,97217.00
2023-03-10T18:46:30.682Z,97228.00
2023-03-10T18:48:58.067Z,97237.00
2023-03-10T18:51:28.705Z,97234.00
2023-03-10T18:53:55.961Z,97230.00
2023-03-10T18:56:26.014Z,97228.00
2023-03-10T18:58:53.588Z,97227.00
2023-03-10T19:01:21.609Z,97243.00
2023-03-10T19:03:49.320Z,97264.00
2023-03-10T19:06:16.670Z,97245.00
2023-03-10T19:08:44.149Z,97264.00
2023-03-10T19:11:12.148Z,97272.00
2023-03-10T19:13:40.548Z,97273.00
2023-03-10T19:16:10.794Z,97265.00
2023-03-10T19:18:38.438Z,97281.00
2023-03-10T19:21:06.939Z,97297.00
2023-03-10T19:23:34.978Z,97306.00
2023-03-10T19:26:03.656Z,97312.00
2023-03-10T19:28:31.434Z,97336.00
2023-03-10T19:30:58.909Z,97309.00
2023-03-10T19:33:26.657Z,97312.00
2023-03-10T19:36:05.326Z,97302.00
2023-03-10T19:38:36.808Z,97311.00
2023-03-10T19:41:06.650Z,97312.00
2023-03-10T19:43:35.856Z,97343.00
2023-03-10T19:46:11.630Z,97314.00
2023-03-10T19:48:40.558Z,97320.00
2023-03-10T19:51:09.144Z,97337.00
2023-03-10T19:53:36.736Z,97351.00
2023-03-10T19:56:07.659Z,97333.00
2023-03-10T19:58:34.967Z,97325.00
2023-03-10T20:01:02.409Z,97344.00
2023-03-10T20:03:31.684Z,97337.00
2023-03-10T20:05:59.051Z,97350.00
2023-03-10T20:08:26.546Z,97348.00
2023-03-10T20:10:53.829Z,97351.00
2023-03-10T20:13:21.185Z,97346.00
2023-03-10T20:15:49.180Z,97361.00
2023-03-10T20:18:18.470Z,97368.00
2023-03-10T20:20:45.962Z,97403.00
2023-03-10T20:23:15.323Z,97367.00
2023-03-10T20:25:43.599Z,97385.00
2023-03-10T20:28:11.282Z,97402.00
2023-03-10T20:30:39.915Z,97402.00
2023-03-10T20:33:08.159Z,97419.00
2023-03-10T20:35:37.202Z,97418.00
2023-03-10T20:38:04.611Z,97412.00
2023-03-10T20:40:32.018Z,97407.00
2023-03-10T20:42:59.722Z,97396.00
